Terminal Aerodrome Forecast
Issued by NWS North Platte, NE

Home | Current Version | Previous Version | Text Only | Print | Product List | Glossary On
Versions: 1 2 3 4 5 6 7 8 9 10 11 12 13
211
FTUS43 KLBF 051120
TAFVTN
TAF
KVTN 051120Z 0512/0612 21012KT P6SM BKN100
     FM051500 25012KT P6SM BKN100
     FM051800 31016G23KT P6SM BKN090
     FM052100 32021G27KT P6SM BKN025
     FM060000 32017G24KT P6SM BKN050
     FM060300 31016G22KT P6SM SCT200=

USA.gov is the U.S. government's official web portal to all federal, state and local government web resources and services.